createdAt,value
2019-02-15T00:00:33.372Z,4.88
2019-02-15T00:02:59.646Z,5.00
2019-02-15T00:05:25.561Z,4.91
2019-02-15T00:07:51.518Z,4.83
2019-02-15T00:10:19.399Z,4.77
2019-02-15T00:12:45.391Z,4.53
2019-02-15T00:15:11.452Z,4.43
2019-02-15T00:17:51.356Z,4.31
2019-02-15T00:20:28.252Z,4.27
2019-02-15T00:22:54.162Z,4.44
2019-02-15T00:25:20.047Z,4.34
2019-02-15T00:27:45.997Z,4.20
2019-02-15T00:30:12.114Z,4.21
2019-02-15T00:32:38.191Z,4.29
2019-02-15T00:35:04.274Z,4.38
2019-02-15T00:37:30.412Z,4.28
2019-02-15T00:39:56.308Z,4.21
2019-02-15T00:42:22.388Z,4.17
2019-02-15T00:44:48.254Z,4.05
2019-02-15T00:47:19.119Z,4.09
2019-02-15T00:49:45.714Z,3.91
2019-02-15T00:52:13.721Z,3.91
2019-02-15T00:54:41.668Z,4.02
2019-02-15T00:57:09.596Z,3.85
2019-02-15T00:59:37.481Z,3.85
2019-02-15T01:02:11.741Z,3.86
2019-02-15T01:04:42.412Z,3.76
2019-02-15T01:07:16.021Z,3.80
2019-02-15T01:09:43.818Z,3.73
2019-02-15T01:12:11.754Z,3.64
2019-02-15T01:14:37.697Z,3.64
2019-02-15T01:17:04.355Z,3.53
2019-02-15T01:19:30.459Z,3.45
2019-02-15T01:21:56.422Z,3.51
2019-02-15T01:24:22.631Z,3.51
2019-02-15T01:26:50.641Z,3.43
2019-02-15T01:29:30.487Z,3.43
2019-02-15T01:32:10.271Z,3.49
2019-02-15T01:34:55.081Z,3.49
2019-02-15T01:37:25.618Z,3.52
2019-02-15T01:40:05.354Z,3.49
2019-02-15T01:42:42.038Z,3.55
2019-02-15T01:45:12.764Z,3.55
2019-02-15T01:47:40.220Z,3.62
2019-02-15T01:50:06.957Z,3.62
2019-02-15T01:52:32.933Z,3.69
2019-02-15T01:54:58.983Z,3.71
2019-02-15T01:57:24.934Z,3.81
2019-02-15T01:59:50.807Z,3.81
2019-02-15T02:02:17.006Z,3.82
2019-02-15T02:04:42.882Z,3.74
2019-02-15T02:07:08.852Z,3.76
2019-02-15T02:09:34.905Z,3.97
2019-02-15T02:12:01.000Z,3.93
2019-02-15T02:14:26.912Z,4.00
2019-02-15T02:16:53.077Z,4.07
2019-02-15T02:19:19.079Z,4.02
2019-02-15T02:21:45.077Z,3.93
2019-02-15T02:24:11.237Z,3.93
2019-02-15T02:26:37.207Z,4.04
2019-02-15T02:29:07.233Z,4.04
2019-02-15T02:31:33.256Z,3.89
2019-02-15T02:33:59.228Z,3.79
2019-02-15T02:36:47.811Z,3.79
2019-02-15T02:39:13.680Z,3.80
2019-02-15T02:41:39.608Z,3.76
2019-02-15T02:44:05.682Z,3.83
2019-02-15T02:46:31.759Z,3.69
2019-02-15T02:48:57.749Z,3.82
2019-02-15T02:51:23.667Z,4.04
2019-02-15T02:53:49.528Z,4.19
2019-02-15T02:56:15.544Z,4.41
2019-02-15T02:58:41.559Z,4.36
2019-02-15T03:01:07.539Z,4.46
2019-02-15T03:03:33.531Z,4.41
2019-02-15T03:05:59.631Z,4.37
2019-02-15T03:08:25.647Z,4.42
2019-02-15T03:10:51.647Z,4.40
2019-02-15T03:13:17.659Z,4.39
2019-02-15T03:15:43.604Z,4.24
2019-02-15T03:18:09.687Z,4.15
2019-02-15T03:20:35.660Z,4.08
2019-02-15T03:23:01.740Z,4.06
2019-02-15T03:25:27.627Z,3.98
2019-02-15T03:27:53.652Z,3.98
2019-02-15T03:30:19.553Z,3.96
2019-02-15T03:32:45.556Z,3.99
2019-02-15T03:35:11.558Z,3.98
2019-02-15T03:37:39.514Z,3.97
2019-02-15T03:40:08.993Z,3.86
2019-02-15T03:42:34.983Z,3.94
2019-02-15T03:45:00.972Z,3.94
2019-02-15T03:47:26.979Z,3.79
2019-02-15T03:49:53.120Z,3.84
2019-02-15T03:52:19.003Z,3.87
2019-02-15T03:54:45.132Z,3.87
2019-02-15T03:57:11.163Z,3.91
2019-02-15T03:59:37.356Z,3.81
2019-02-15T04:02:03.616Z,3.81
2019-02-15T04:04:29.506Z,3.71
2019-02-15T04:06:55.380Z,3.71
2019-02-15T04:09:21.303Z,3.75
2019-02-15T04:11:47.383Z,3.76
2019-02-15T04:14:13.453Z,3.61
2019-02-15T04:16:39.412Z,3.56
2019-02-15T04:19:05.377Z,3.42
2019-02-15T04:21:31.296Z,3.62
2019-02-15T04:23:57.175Z,3.76
2019-02-15T04:26:23.042Z,3.74
2019-02-15T04:28:48.995Z,3.65
2019-02-15T04:31:18.751Z,3.68
2019-02-15T04:33:44.949Z,3.50
2019-02-15T04:36:10.833Z,3.39
2019-02-15T04:38:36.712Z,3.31
2019-02-15T04:41:02.800Z,3.30
2019-02-15T04:43:28.773Z,3.38
2019-02-15T04:45:54.851Z,3.39
2019-02-15T04:48:20.957Z,3.34
2019-02-15T04:50:46.869Z,3.26
2019-02-15T04:53:12.843Z,3.26
2019-02-15T04:55:38.722Z,3.14
2019-02-15T04:58:04.669Z,3.06
2019-02-15T05:00:30.686Z,3.09
2019-02-15T05:02:56.602Z,3.13
2019-02-15T05:05:22.532Z,3.13
2019-02-15T05:07:48.527Z,2.96
2019-02-15T05:10:14.505Z,2.94
2019-02-15T05:12:40.380Z,2.84
2019-02-15T05:15:07.238Z,2.86
2019-02-15T05:17:33.110Z,2.89
2019-02-15T05:19:58.988Z,2.97
2019-02-15T05:22:25.024Z,2.97
2019-02-15T05:24:50.937Z,3.08
2019-02-15T05:27:16.784Z,3.08
2019-02-15T05:29:42.831Z,3.03
2019-02-15T05:32:12.324Z,2.98
2019-02-15T05:34:38.295Z,2.98
2019-02-15T05:37:04.221Z,2.96
2019-02-15T05:39:30.098Z,3.04
2019-02-15T05:41:56.085Z,3.08
2019-02-15T05:44:22.080Z,2.87
2019-02-15T05:46:47.976Z,2.67
2019-02-15T05:49:13.837Z,2.77
2019-02-15T05:51:39.846Z,2.90
2019-02-15T05:54:05.733Z,2.75
2019-02-15T05:56:31.612Z,2.77
2019-02-15T05:58:57.525Z,2.64
2019-02-15T06:01:25.006Z,2.54
2019-02-15T06:03:50.979Z,2.52
2019-02-15T06:06:16.917Z,2.63
2019-02-15T06:08:42.905Z,2.83
2019-02-15T06:11:08.921Z,2.90
2019-02-15T06:13:35.045Z,2.74
2019-02-15T06:16:01.110Z,2.69
2019-02-15T06:18:27.357Z,2.54
2019-02-15T06:20:53.471Z,2.54
2019-02-15T06:23:19.350Z,2.49
2019-02-15T06:25:45.272Z,2.49
2019-02-15T06:28:11.147Z,2.43
2019-02-15T06:30:37.114Z,2.28
2019-02-15T06:33:06.340Z,2.35
2019-02-15T06:35:33.113Z,2.36
2019-02-15T06:37:59.078Z,2.34
2019-02-15T06:40:25.888Z,2.47
2019-02-15T06:42:51.850Z,2.49
2019-02-15T06:45:24.204Z,2.51
2019-02-15T06:47:45.673Z,2.69
2019-02-15T06:50:11.817Z,2.74
2019-02-15T06:52:37.682Z,2.69
2019-02-15T06:55:04.844Z,2.81
2019-02-15T06:57:30.776Z,2.82
2019-02-15T07:00:15.185Z,3.01
2019-02-15T07:02:49.080Z,3.25
2019-02-15T07:05:19.860Z,3.19
2019-02-15T07:07:45.783Z,3.19
2019-02-15T07:10:11.728Z,3.19
2019-02-15T07:12:37.700Z,3.25
2019-02-15T07:15:04.879Z,3.45
2019-02-15T07:17:31.014Z,3.45
2019-02-15T07:19:56.905Z,3.47
2019-02-15T07:22:22.784Z,3.53
2019-02-15T07:24:48.732Z,3.54
2019-02-15T07:27:14.737Z,3.60
2019-02-15T07:29:40.718Z,3.88
2019-02-15T07:32:06.616Z,3.88
2019-02-15T07:34:36.527Z,3.84
2019-02-15T07:37:02.451Z,4.15
2019-02-15T07:39:28.303Z,4.15
2019-02-15T07:41:54.259Z,4.27
2019-02-15T07:44:20.208Z,4.49
2019-02-15T07:46:46.105Z,4.63
2019-02-15T07:49:12.013Z,4.75
2019-02-15T07:51:37.894Z,4.91
2019-02-15T07:54:03.850Z,5.05
2019-02-15T07:56:29.779Z,5.15
2019-02-15T07:58:55.648Z,5.24
2019-02-15T08:01:21.619Z,5.52
2019-02-15T08:03:47.523Z,5.49
2019-02-15T08:06:13.425Z,5.66
2019-02-15T08:08:39.316Z,5.71
2019-02-15T08:11:05.178Z,5.72
2019-02-15T08:13:31.302Z,5.80
2019-02-15T08:15:57.425Z,5.81
2019-02-15T08:18:23.297Z,5.84
2019-02-15T08:20:49.150Z,6.00
2019-02-15T08:23:15.066Z,6.17
2019-02-15T08:25:40.935Z,6.08
2019-02-15T08:28:06.930Z,6.15
2019-02-15T08:30:33.066Z,6.30
2019-02-15T08:32:58.917Z,6.33
2019-02-15T08:35:28.232Z,6.40
2019-02-15T08:37:54.297Z,6.37
2019-02-15T08:40:22.150Z,6.57
2019-02-15T08:42:48.080Z,6.63
2019-02-15T08:45:13.962Z,6.69
2019-02-15T08:47:39.992Z,6.97
2019-02-15T08:50:08.443Z,6.95
2019-02-15T08:52:34.308Z,7.05
2019-02-15T08:55:00.329Z,7.34
2019-02-15T08:57:26.177Z,7.59
2019-02-15T08:59:52.048Z,7.76
2019-02-15T09:02:20.110Z,7.81
2019-02-15T09:04:46.060Z,7.83
2019-02-15T09:07:12.166Z,7.87
2019-02-15T09:09:38.056Z,8.10
2019-02-15T09:12:03.927Z,8.27
2019-02-15T09:14:29.817Z,8.32
2019-02-15T09:16:55.714Z,8.54
2019-02-15T09:19:21.582Z,8.55
2019-02-15T09:21:47.472Z,8.48
2019-02-15T09:24:13.452Z,8.80
2019-02-15T09:26:39.310Z,8.81
2019-02-15T09:29:06.470Z,9.02
2019-02-15T09:31:32.350Z,9.11
2019-02-15T09:33:58.240Z,9.16
2019-02-15T09:36:24.673Z,9.22
2019-02-15T09:38:50.550Z,9.25
2019-02-15T09:41:16.408Z,9.34
2019-02-15T09:43:42.513Z,9.36
2019-02-15T09:46:08.412Z,9.43
2019-02-15T09:48:34.280Z,9.45
2019-02-15T09:51:00.199Z,9.46
2019-02-15T09:53:26.074Z,9.52
2019-02-15T09:55:51.962Z,9.66
2019-02-15T09:58:17.890Z,9.79
2019-02-15T10:00:43.768Z,9.85
2019-02-15T10:03:09.719Z,9.86
2019-02-15T10:05:35.736Z,9.95
2019-02-15T10:08:01.700Z,10.01
2019-02-15T10:10:27.552Z,10.13
2019-02-15T10:12:53.471Z,10.05
2019-02-15T10:15:19.446Z,10.05
2019-02-15T10:17:45.335Z,10.19
2019-02-15T10:20:11.269Z,10.30
2019-02-15T10:22:37.132Z,10.37
2019-02-15T10:25:05.857Z,10.41
2019-02-15T10:27:31.714Z,10.38
2019-02-15T10:29:57.732Z,10.39
2019-02-15T10:32:24.504Z,10.53
2019-02-15T10:34:50.403Z,10.63
2019-02-15T10:37:16.339Z,10.77
2019-02-15T10:39:42.586Z,10.88
2019-02-15T10:42:08.437Z,10.84
2019-02-15T10:44:34.360Z,10.76
2019-02-15T10:47:00.324Z,10.72
2019-02-15T10:49:26.192Z,10.82
2019-02-15T10:51:52.054Z,10.91
2019-02-15T10:54:17.972Z,11.00
2019-02-15T10:56:43.854Z,11.00
2019-02-15T10:59:11.159Z,11.22
2019-02-15T11:01:37.211Z,11.20
2019-02-15T11:04:03.180Z,11.29
2019-02-15T11:06:29.372Z,11.25
2019-02-15T11:08:55.256Z,11.34
2019-02-15T11:11:21.130Z,11.34
2019-02-15T11:13:47.149Z,11.51
2019-02-15T11:16:13.016Z,11.71
2019-02-15T11:18:38.989Z,11.71
2019-02-15T11:21:04.908Z,11.80
2019-02-15T11:23:30.901Z,11.83
2019-02-15T11:25:56.890Z,11.93
2019-02-15T11:28:22.742Z,11.89
2019-02-15T11:30:48.772Z,11.85
2019-02-15T11:33:14.645Z,11.89
2019-02-15T11:35:40.516Z,11.95
2019-02-15T11:38:06.513Z,11.96
2019-02-15T11:40:36.590Z,11.87
2019-02-15T11:43:02.566Z,11.84
2019-02-15T11:45:28.527Z,11.88
2019-02-15T11:47:54.435Z,12.08
2019-02-15T11:50:20.338Z,12.13
2019-02-15T11:52:46.311Z,12.19
2019-02-15T11:55:12.424Z,12.31
2019-02-15T11:57:38.508Z,12.30
2019-02-15T12:00:14.374Z,12.29
2019-02-15T12:02:37.108Z,12.45
2019-02-15T12:05:05.767Z,12.56
2019-02-15T12:07:31.641Z,12.55
2019-02-15T12:09:57.561Z,12.56
2019-02-15T12:12:23.445Z,12.69
2019-02-15T12:14:49.309Z,12.89
2019-02-15T12:17:15.366Z,13.18
2019-02-15T12:19:41.223Z,13.67
2019-02-15T12:22:07.086Z,15.64
2019-02-15T12:24:33.256Z,16.56
2019-02-15T12:26:59.121Z,15.83
2019-02-15T12:29:25.159Z,21.38
2019-02-15T12:31:51.225Z,19.27
2019-02-15T12:34:17.198Z,21.70
2019-02-15T12:36:43.127Z,20.09
2019-02-15T12:39:12.724Z,20.10
2019-02-15T12:41:37.929Z,19.67
2019-02-15T12:44:03.917Z,25.24
2019-02-15T12:46:29.842Z,20.13
2019-02-15T12:48:55.788Z,25.26
2019-02-15T12:51:21.877Z,21.80
2019-02-15T12:53:48.058Z,21.12
2019-02-15T12:56:14.057Z,18.38
2019-02-15T12:58:39.964Z,19.02
2019-02-15T13:01:05.941Z,22.80
2019-02-15T13:03:31.934Z,27.59
2019-02-15T13:05:57.976Z,26.39
2019-02-15T13:08:24.002Z,27.00
2019-02-15T13:10:50.079Z,28.30
2019-02-15T13:13:15.957Z,31.15
2019-02-15T13:15:43.936Z,28.50
2019-02-15T13:18:09.743Z,30.71
2019-02-15T13:20:35.653Z,31.03
2019-02-15T13:23:03.422Z,32.77
2019-02-15T13:25:36.551Z,32.87
2019-02-15T13:27:57.242Z,32.58
2019-02-15T13:30:23.211Z,31.99
2019-02-15T13:32:49.228Z,32.24
2019-02-15T13:35:18.340Z,31.24
2019-02-15T13:37:44.345Z,32.50
2019-02-15T13:40:10.321Z,32.18
2019-02-15T13:42:36.398Z,31.14
2019-02-15T13:45:03.861Z,32.89
2019-02-15T13:47:34.710Z,28.99
2019-02-15T13:49:57.678Z,28.87
2019-02-15T13:52:24.489Z,30.65
2019-02-15T13:54:50.366Z,29.39
2019-02-15T13:57:16.256Z,30.81
2019-02-15T13:59:42.131Z,31.25
2019-02-15T14:02:08.174Z,29.76
2019-02-15T14:04:34.032Z,30.53
2019-02-15T14:07:00.052Z,29.03
2019-02-15T14:09:25.989Z,31.05
2019-02-15T14:11:51.841Z,31.32
2019-02-15T14:14:17.885Z,31.86
2019-02-15T14:16:43.716Z,29.67
2019-02-15T14:19:09.705Z,26.18
2019-02-15T14:21:44.085Z,25.32
2019-02-15T14:24:03.517Z,24.01
2019-02-15T14:26:29.399Z,25.96
2019-02-15T14:28:55.541Z,26.19
2019-02-15T14:31:21.413Z,26.10
2019-02-15T14:33:47.301Z,27.64
2019-02-15T14:36:13.215Z,28.69
2019-02-15T14:38:39.084Z,25.55
2019-02-15T14:41:05.168Z,24.47
2019-02-15T14:43:31.357Z,25.11
2019-02-15T14:45:57.326Z,24.25
2019-02-15T14:48:23.208Z,26.53
2019-02-15T14:50:49.226Z,27.78
2019-02-15T14:53:15.388Z,27.20
2019-02-15T14:55:41.240Z,27.03
2019-02-15T14:58:07.246Z,27.82
2019-02-15T15:00:33.345Z,25.83
2019-02-15T15:02:59.240Z,29.17
2019-02-15T15:05:25.261Z,28.09
2019-02-15T15:07:51.315Z,27.42
2019-02-15T15:10:17.311Z,25.87
2019-02-15T15:12:43.191Z,29.49
2019-02-15T15:15:13.755Z,29.86
2019-02-15T15:17:39.818Z,25.47
2019-02-15T15:20:08.383Z,25.79
2019-02-15T15:22:34.427Z,25.34
2019-02-15T15:25:00.437Z,24.94
2019-02-15T15:27:26.388Z,26.58
2019-02-15T15:29:52.329Z,27.02
2019-02-15T15:32:18.188Z,24.28
2019-02-15T15:34:44.162Z,21.62
2019-02-15T15:37:16.288Z,18.42
2019-02-15T15:39:37.891Z,16.46
2019-02-15T15:42:03.879Z,16.42
2019-02-15T15:44:33.690Z,15.37
2019-02-15T15:46:59.650Z,15.07
2019-02-15T15:49:25.503Z,15.15
2019-02-15T15:51:51.525Z,15.07
2019-02-15T15:54:17.489Z,15.10
2019-02-15T15:56:43.358Z,14.61
2019-02-15T15:59:09.275Z,14.44
2019-02-15T16:01:35.208Z,14.23
2019-02-15T16:04:01.243Z,14.06
2019-02-15T16:06:27.207Z,13.87
2019-02-15T16:08:53.187Z,13.78
2019-02-15T16:11:19.074Z,13.69
2019-02-15T16:13:45.084Z,13.55
2019-02-15T16:16:11.020Z,13.44
2019-02-15T16:18:36.874Z,13.29
2019-02-15T16:21:02.889Z,13.15
2019-02-15T16:23:28.878Z,13.13
2019-02-15T16:25:54.969Z,12.94
2019-02-15T16:28:20.939Z,12.84
2019-02-15T16:30:46.914Z,12.78
2019-02-15T16:33:12.907Z,12.54
2019-02-15T16:35:38.819Z,12.53
2019-02-15T16:38:04.836Z,12.45
2019-02-15T16:40:30.816Z,12.18
2019-02-15T16:42:56.744Z,12.07
2019-02-15T16:45:23.508Z,12.03
2019-02-15T16:47:49.650Z,11.86
2019-02-15T16:50:15.585Z,11.64
2019-02-15T16:52:41.549Z,11.54
2019-02-15T16:55:12.663Z,11.52
2019-02-15T16:57:35.892Z,11.41
2019-02-15T17:00:02.875Z,11.23
2019-02-15T17:02:28.760Z,10.97
2019-02-15T17:04:54.813Z,10.80
2019-02-15T17:07:20.804Z,10.59
2019-02-15T17:09:46.777Z,10.40
2019-02-15T17:12:12.767Z,10.68
2019-02-15T17:14:38.638Z,10.42
2019-02-15T17:17:04.609Z,10.09
2019-02-15T17:19:30.634Z,10.20
2019-02-15T17:21:56.640Z,9.97
2019-02-15T17:24:22.501Z,10.28
2019-02-15T17:26:48.454Z,10.66
2019-02-15T17:29:14.387Z,10.93
2019-02-15T17:31:40.299Z,10.72
2019-02-15T17:34:06.190Z,10.66
2019-02-15T17:36:32.280Z,10.18
2019-02-15T17:38:58.228Z,10.15
2019-02-15T17:41:24.273Z,10.06
2019-02-15T17:43:50.333Z,9.85
2019-02-15T17:46:16.277Z,9.73
2019-02-15T17:48:42.158Z,9.57
2019-02-15T17:51:08.134Z,9.34
2019-02-15T17:53:34.113Z,9.20
2019-02-15T17:56:00.026Z,9.41
2019-02-15T17:58:26.111Z,9.11
2019-02-15T18:00:52.008Z,8.88
2019-02-15T18:03:17.972Z,9.08
2019-02-15T18:05:43.909Z,8.87
2019-02-15T18:08:09.946Z,8.73
2019-02-15T18:10:35.830Z,8.61
2019-02-15T18:13:01.737Z,8.67
2019-02-15T18:15:27.906Z,8.79
2019-02-15T18:17:53.891Z,8.77
2019-02-15T18:20:20.010Z,8.72
2019-02-15T18:22:46.044Z,8.73
2019-02-15T18:25:12.103Z,8.77
2019-02-15T18:27:38.143Z,8.53
2019-02-15T18:30:10.588Z,8.24
2019-02-15T18:32:36.563Z,8.71
2019-02-15T18:35:02.707Z,8.40
2019-02-15T18:37:28.597Z,8.22
2019-02-15T18:39:54.548Z,8.53
2019-02-15T18:42:23.128Z,8.53
2019-02-15T18:44:48.999Z,8.38
2019-02-15T18:47:18.800Z,8.24
2019-02-15T18:49:44.781Z,8.06
2019-02-15T18:52:10.652Z,8.05
2019-02-15T18:54:36.543Z,7.80
2019-02-15T18:57:02.625Z,7.72
2019-02-15T18:59:28.596Z,7.91
2019-02-15T19:01:54.608Z,7.70
2019-02-15T19:04:20.468Z,7.56
2019-02-15T19:06:46.576Z,7.58
2019-02-15T19:09:12.522Z,7.78
2019-02-15T19:11:38.395Z,7.86
2019-02-15T19:14:04.473Z,7.85
2019-02-15T19:16:30.492Z,7.97
2019-02-15T19:18:56.356Z,7.97
2019-02-15T19:21:22.256Z,7.68
2019-02-15T19:23:48.137Z,7.92
2019-02-15T19:26:14.020Z,7.72
2019-02-15T19:28:39.878Z,7.58
2019-02-15T19:31:05.789Z,7.54
2019-02-15T19:33:31.770Z,7.75
2019-02-15T19:35:57.740Z,7.72
2019-02-15T19:38:23.750Z,7.57
2019-02-15T19:40:50.158Z,7.51
2019-02-15T19:43:15.989Z,7.32
2019-02-15T19:45:42.904Z,7.28
2019-02-15T19:48:09.109Z,7.14
2019-02-15T19:50:34.956Z,7.17
2019-02-15T19:53:00.878Z,7.39
2019-02-15T19:55:26.899Z,7.22
2019-02-15T19:57:52.867Z,7.15
2019-02-15T20:00:19.068Z,7.23
2019-02-15T20:02:44.970Z,7.15
2019-02-15T20:05:10.932Z,7.12
2019-02-15T20:07:36.996Z,6.98
2019-02-15T20:10:06.817Z,6.97
2019-02-15T20:12:32.833Z,6.95
2019-02-15T20:14:58.708Z,7.26
2019-02-15T20:17:24.589Z,7.31
2019-02-15T20:19:51.155Z,7.16
2019-02-15T20:22:17.172Z,7.00
2019-02-15T20:24:43.274Z,7.14
2019-02-15T20:27:09.224Z,7.12
2019-02-15T20:29:35.389Z,6.97
2019-02-15T20:32:01.503Z,6.96
2019-02-15T20:34:27.995Z,6.73
2019-02-15T20:36:54.556Z,6.68
2019-02-15T20:39:21.127Z,6.66
2019-02-15T20:41:48.221Z,6.78
2019-02-15T20:44:15.390Z,6.79
2019-02-15T20:46:42.066Z,6.84
2019-02-15T20:49:08.561Z,6.78
2019-02-15T20:51:35.012Z,6.71
2019-02-15T20:54:01.471Z,6.73
2019-02-15T20:56:27.822Z,6.45
2019-02-15T20:58:54.272Z,6.47
2019-02-15T21:01:20.357Z,6.85
2019-02-15T21:03:46.299Z,6.76
2019-02-15T21:06:12.238Z,6.64
2019-02-15T21:08:38.123Z,6.51
2019-02-15T21:11:04.101Z,6.59
2019-02-15T21:13:29.992Z,6.68
2019-02-15T21:15:55.850Z,6.61
2019-02-15T21:18:21.740Z,6.54
2019-02-15T21:20:47.766Z,6.54
2019-02-15T21:23:13.630Z,6.56
2019-02-15T21:25:39.492Z,6.58
2019-02-15T21:28:05.590Z,6.46
2019-02-15T21:30:31.535Z,6.47
2019-02-15T21:32:57.455Z,6.50
2019-02-15T21:35:23.444Z,6.36
2019-02-15T21:37:50.198Z,6.36
2019-02-15T21:40:17.047Z,6.47
2019-02-15T21:42:43.091Z,6.50
2019-02-15T21:45:09.956Z,6.47
2019-02-15T21:47:36.048Z,6.48
2019-02-15T21:50:16.735Z,6.41
2019-02-15T21:52:43.752Z,6.28
2019-02-15T21:55:09.949Z,6.22
2019-02-15T21:57:36.027Z,6.24
2019-02-15T22:00:04.221Z,6.18
2019-02-15T22:02:30.202Z,6.19
2019-02-15T22:04:56.071Z,6.03
2019-02-15T22:07:22.414Z,6.08
2019-02-15T22:09:48.416Z,6.03
2019-02-15T22:12:14.266Z,6.19
2019-02-15T22:14:40.265Z,6.15
2019-02-15T22:17:06.153Z,6.06
2019-02-15T22:19:32.019Z,6.09
2019-02-15T22:21:57.944Z,6.06
2019-02-15T22:24:23.822Z,6.11
2019-02-15T22:26:49.692Z,5.95
2019-02-15T22:29:15.589Z,6.00
2019-02-15T22:31:41.469Z,5.97
2019-02-15T22:34:07.480Z,5.92
2019-02-15T22:36:33.340Z,5.80
2019-02-15T22:38:59.234Z,5.88
2019-02-15T22:41:28.028Z,5.84
2019-02-15T22:43:53.993Z,5.75
2019-02-15T22:46:19.859Z,5.84
2019-02-15T22:48:45.791Z,6.03
2019-02-15T22:51:15.074Z,6.11
2019-02-15T22:53:40.969Z,6.08
2019-02-15T22:56:06.932Z,6.06
2019-02-15T22:58:32.820Z,5.97
2019-02-15T23:01:02.818Z,5.90
2019-02-15T23:03:28.788Z,5.77
2019-02-15T23:05:55.426Z,5.53
2019-02-15T23:08:21.325Z,5.38
2019-02-15T23:10:47.394Z,5.62
2019-02-15T23:13:13.332Z,5.73
2019-02-15T23:15:39.315Z,5.62
2019-02-15T23:18:05.177Z,5.56
2019-02-15T23:20:31.313Z,5.56
2019-02-15T23:22:57.186Z,5.75
2019-02-15T23:25:25.015Z,5.77
2019-02-15T23:27:50.888Z,5.69
2019-02-15T23:30:16.745Z,5.75
2019-02-15T23:32:42.647Z,5.73
2019-02-15T23:35:08.648Z,5.76
2019-02-15T23:37:34.511Z,5.70
2019-02-15T23:40:00.548Z,5.69
2019-02-15T23:42:26.412Z,5.67
2019-02-15T23:44:52.279Z,5.70
2019-02-15T23:47:18.157Z,5.60
2019-02-15T23:49:44.043Z,5.44
2019-02-15T23:52:09.974Z,5.34
2019-02-15T23:54:35.938Z,5.27
2019-02-15T23:57:01.858Z,5.27
2019-02-15T23:59:27.773Z,5.16
